Time;durP1;ratioP1;P1;durP2;ratioP2;P2;SDS_P1;SDS_P2;PMS_P1;PMS_P2;Temp;Humidity;BMP_temperature;BMP_pressure;BME280_temperature;BME280_humidity;BME280_pressure;Samples;Min_cycle;Max_cycle;Signal;HPM_P1;HPM_P2
2023/09/22 00:02:53;;;;;;;3.53;1.00;;;;;;;17.91;72.96;100252.91;10322671;28;96683;-76
2023/09/22 00:07:56;;;;;;;;;;;;;;;17.79;73.89;100249.31;10318431;28;97299;-76
2023/09/22 00:13:00;;;;;;;1.00;0.45;;;;;;;17.56;73.91;100247.38;10287165;28;96778;-76
2023/09/22 00:18:05;;;;;;;1.20;0.60;;;;;;;17.72;73.12;100242.72;10336229;28;96888;-76
2023/09/22 00:23:08;;;;;;;1.40;0.50;;;;;;;17.71;73.05;100243.66;10309427;28;97203;-75
2023/09/22 00:28:12;;;;;;;2.33;0.60;;;;;;;17.61;73.08;100239.06;10314174;28;97079;-76
2023/09/22 00:33:17;;;;;;;1.00;0.40;;;;;;;17.28;73.84;100233.31;10335687;28;98495;-76
2023/09/22 00:38:21;;;;;;;0.63;0.40;;;;;;;17.06;74.92;100233.94;10339738;28;96710;-76
2023/09/22 00:43:24;;;;;;;0.70;0.30;;;;;;;17.13;74.15;100232.56;10304787;28;96805;-76
2023/09/22 00:48:31;;;;;;;1.73;0.40;;;;;;;16.97;74.68;100231.88;10320210;28;97201;-75
2023/09/22 00:53:36;;;;;;;0.75;0.45;;;;;;;16.80;75.17;100232.13;10339548;28;96969;-76
2023/09/22 00:58:40;;;;;;;1.27;0.45;;;;;;;16.72;75.98;100231.78;10337717;28;96786;-76
2023/09/22 01:03:45;;;;;;;3.75;0.95;;;;;;;16.78;75.32;100239.34;10328713;28;96871;-76
2023/09/22 01:08:48;;;;;;;1.83;0.52;;;;;;;16.83;74.94;100230.13;10339178;28;97182;-76
2023/09/22 01:13:51;;;;;;;3.10;1.08;;;;;;;16.62;75.26;100228.84;10337613;28;97536;-76
2023/09/22 01:18:57;;;;;;;1.75;0.65;;;;;;;16.62;76.00;100223.53;10314291;28;96769;-76
2023/09/22 01:24:04;;;;;;;2.92;0.80;;;;;;;16.62;75.77;100226.19;10298228;28;96985;-76
2023/09/22 01:29:08;;;;;;;2.63;0.60;;;;;;;16.77;75.23;100232.34;10331518;28;96787;-75
2023/09/22 01:34:12;;;;;;;4.03;0.80;;;;;;;16.78;74.97;100228.72;10329729;28;96814;-75
2023/09/22 01:39:16;;;;;;;1.92;0.60;;;;;;;16.90;74.97;100231.44;10333137;28;96625;-76
2023/09/22 01:44:19;;;;;;;;;;;;;;;16.99;75.90;100230.81;10335378;28;96783;-76
2023/09/22 01:49:23;;;;;;;4.15;0.85;;;;;;;16.94;74.79;100232.06;10323024;28;96801;-76
2023/09/22 01:54:27;;;;;;;2.65;0.55;;;;;;;16.96;75.38;100231.00;10264703;28;96783;-76
2023/09/22 01:59:30;;;;;;;;;;;;;;;17.02;76.00;100235.94;10327643;28;96805;-76
2023/09/22 02:04:33;;;;;;;1.77;0.80;;;;;;;17.04;75.15;100231.38;10336605;28;96760;-76
2023/09/22 02:09:38;;;;;;;0.93;0.55;;;;;;;17.09;74.77;100230.22;10287998;28;97490;-76
2023/09/22 02:14:42;;;;;;;1.52;0.82;;;;;;;17.15;75.09;100229.81;10292921;28;97009;-76
2023/09/22 02:19:45;;;;;;;2.95;0.85;;;;;;;17.08;75.37;100228.50;10296793;28;96737;-76
2023/09/22 02:24:50;;;;;;;0.80;0.50;;;;;;;17.05;75.02;100242.88;10325920;28;96869;-76
2023/09/22 02:29:53;;;;;;;2.33;1.02;;;;;;;17.00;75.50;100242.28;10295554;28;96928;-76
2023/09/22 02:34:57;;;;;;;1.83;0.70;;;;;;;17.04;75.61;100247.31;10297103;28;97217;-76
2023/09/22 02:40:04;;;;;;;1.98;0.60;;;;;;;17.09;75.59;100244.34;10297343;28;96887;-76
2023/09/22 02:45:10;;;;;;;1.17;0.55;;;;;;;17.11;75.42;100242.44;10266309;28;97064;-76
2023/09/22 02:50:18;;;;;;;2.72;0.80;;;;;;;17.13;75.25;100242.34;10268417;28;96710;-76
2023/09/22 02:55:23;;;;;;;2.50;0.88;;;;;;;17.15;75.49;100246.63;10340712;28;97053;-77
2023/09/22 03:00:26;;;;;;;2.20;0.80;;;;;;;17.18;75.05;100248.19;10297462;28;96675;-76
2023/09/22 03:05:31;;;;;;;2.50;0.77;;;;;;;17.17;75.42;100252.69;10342219;28;97067;-76
2023/09/22 03:10:38;;;;;;;1.08;0.80;;;;;;;17.15;75.57;100251.94;10341678;28;96712;-76
2023/09/22 03:15:42;;;;;;;3.60;1.00;;;;;;;17.08;75.76;100240.00;10308661;28;97904;-76
2023/09/22 03:20:46;;;;;;;4.05;1.20;;;;;;;17.01;75.92;100246.69;10262486;28;96786;-76
2023/09/22 03:25:50;;;;;;;2.20;1.10;;;;;;;16.96;76.02;100252.28;10270722;28;96797;-76
2023/09/22 03:30:53;;;;;;;4.05;1.13;;;;;;;16.94;76.85;100253.34;10302828;28;96980;-76
2023/09/22 03:35:57;;;;;;;1.50;0.80;;;;;;;17.14;75.83;100250.22;10285207;28;96777;-76
2023/09/22 03:41:02;;;;;;;2.08;1.05;;;;;;;17.18;75.74;100253.53;10308988;28;97143;-76
2023/09/22 03:46:05;;;;;;;2.58;1.30;;;;;;;17.13;75.68;100255.63;10302242;28;96680;-76
2023/09/22 03:51:09;;;;;;;2.57;1.50;;;;;;;17.23;75.91;100252.25;10290909;28;96848;-76
2023/09/22 03:56:14;;;;;;;1.73;1.17;;;;;;;17.27;75.49;100251.13;10326206;28;96768;-76
2023/09/22 04:01:18;;;;;;;1.65;1.10;;;;;;;17.29;76.04;100251.88;10326119;28;97302;-76
2023/09/22 04:06:21;;;;;;;2.33;1.05;;;;;;;17.24;75.54;100248.66;10303596;28;96850;-76
2023/09/22 04:11:26;;;;;;;4.70;1.35;;;;;;;17.20;76.02;100249.81;10301880;28;96753;-76
2023/09/22 04:16:30;;;;;;;2.80;1.58;;;;;;;17.20;76.26;100251.63;10314610;28;96926;-76
2023/09/22 04:21:35;;;;;;;2.67;1.45;;;;;;;17.30;75.78;100252.69;10322828;28;96884;-76
2023/09/22 04:26:42;;;;;;;2.72;1.27;;;;;;;17.31;76.01;100259.75;10329841;28;96884;-77
2023/09/22 04:31:45;;;;;;;3.20;1.42;;;;;;;17.33;75.81;100261.31;10314602;28;96772;-76
2023/09/22 04:36:49;;;;;;;2.58;1.65;;;;;;;17.16;75.99;100260.75;10323238;28;97300;-76
2023/09/22 04:41:53;;;;;;;3.88;1.80;;;;;;;17.31;76.02;100265.88;10312016;28;97587;-76
2023/09/22 04:46:57;;;;;;;;;;;;;;;17.26;76.39;100285.81;10307355;28;97176;-76
2023/09/22 04:52:02;;;;;;;2.70;1.50;;;;;;;17.12;76.36;100288.50;10304923;28;96827;-76
2023/09/22 04:57:07;;;;;;;3.45;1.65;;;;;;;16.99;76.83;100294.63;10307613;28;96810;-76
2023/09/22 05:02:11;;;;;;;2.83;1.80;;;;;;;16.93;76.98;100296.81;10313031;28;96863;-76
2023/09/22 05:07:16;;;;;;;3.83;1.67;;;;;;;17.03;76.66;100305.91;10298739;28;96864;-76
2023/09/22 05:12:20;;;;;;;3.50;1.92;;;;;;;16.89;77.48;100305.97;10330075;28;96707;-76
2023/09/22 05:17:24;;;;;;;3.22;1.90;;;;;;;16.91;76.81;100310.22;10319115;28;96807;-76
2023/09/22 05:22:28;;;;;;;2.78;1.98;;;;;;;16.88;77.08;100315.72;10324226;28;98690;-76
2023/09/22 05:27:34;;;;;;;2.83;1.63;;;;;;;16.97;76.68;100316.94;10296987;28;96982;-76
2023/09/22 05:32:38;;;;;;;3.90;1.90;;;;;;;17.01;76.49;100315.78;10303515;28;98921;-76
2023/09/22 05:37:41;;;;;;;2.78;1.85;;;;;;;16.97;76.61;100331.09;10316569;28;96705;-76
2023/09/22 05:42:46;;;;;;;4.60;2.30;;;;;;;16.98;76.72;100337.28;10310362;28;96947;-76
2023/09/22 05:47:49;;;;;;;4.20;2.00;;;;;;;17.09;76.78;100342.72;10306202;28;96805;-77
2023/09/22 05:52:53;;;;;;;3.67;1.95;;;;;;;16.89;77.00;100354.66;10320086;28;97301;-76
2023/09/22 05:57:58;;;;;;;4.43;1.90;;;;;;;16.89;77.48;100346.69;10313716;28;97213;-77
2023/09/22 06:03:01;;;;;;;;;;;;;;;16.86;78.29;100352.19;10309100;28;96715;-76
2023/09/22 06:08:05;;;;;;;6.35;1.75;;;;;;;16.69;78.51;100359.50;10296272;28;96866;-77
2023/09/22 06:13:09;;;;;;;1.58;1.00;;;;;;;16.69;78.36;100362.16;10307407;28;97099;-76
2023/09/22 06:18:14;;;;;;;2.38;0.90;;;;;;;16.74;78.00;100368.06;10326811;28;96882;-76
2023/09/22 06:23:17;;;;;;;2.42;1.10;;;;;;;16.74;78.13;100376.88;10304396;28;96848;-76
2023/09/22 06:28:22;;;;;;;1.60;1.02;;;;;;;16.86;77.83;100378.75;10317857;28;96872;-76
2023/09/22 06:33:27;;;;;;;1.42;0.90;;;;;;;16.99;77.51;100394.78;10312316;28;96949;-76
2023/09/22 06:38:32;;;;;;;1.33;0.90;;;;;;;17.01;77.58;100384.91;10316499;28;97076;-76
2023/09/22 06:43:39;;;;;;;1.42;0.90;;;;;;;17.11;77.48;100393.16;10312110;28;96741;-76
2023/09/22 06:49:01;;;;;;;1.85;1.27;;;;;;;17.15;77.16;100392.00;10312805;28;96776;-76
2023/09/22 06:54:05;;;;;;;1.98;0.98;;;;;;;17.03;77.46;100389.16;10302313;28;96814;-76
2023/09/22 06:59:12;;;;;;;;;;;;;;;17.10;77.97;100407.41;10324283;28;96957;-76
2023/09/22 07:04:16;;;;;;;2.53;1.23;;;;;;;17.07;77.92;100407.63;10304189;28;96843;-76
2023/09/22 07:09:19;;;;;;;1.70;1.00;;;;;;;17.28;77.19;100409.72;10321182;28;96951;-76
2023/09/22 07:14:25;;;;;;;1.20;0.90;;;;;;;17.42;77.00;100419.47;10295106;28;98612;-76
2023/09/22 07:19:28;;;;;;;;;;;;;;;17.50;77.19;100411.91;10304576;28;96793;-77
2023/09/22 07:24:31;;;;;;;3.60;1.02;;;;;;;17.77;76.24;100424.25;10284104;28;96753;-76
2023/09/22 07:29:36;;;;;;;1.80;1.17;;;;;;;17.81;76.37;100441.69;10262514;28;97125;-76
2023/09/22 07:34:39;;;;;;;2.90;1.45;;;;;;;17.89;75.90;100442.06;10271843;28;96942;-76
2023/09/22 07:39:43;;;;;;;1.35;0.98;;;;;;;17.84;75.93;100459.28;10284596;28;97009;-76
2023/09/22 07:44:48;;;;;;;2.38;1.48;;;;;;;17.76;75.81;100457.13;10301440;28;96651;-77
2023/09/22 07:49:54;;;;;;;2.03;1.30;;;;;;;17.82;75.85;100451.41;10293517;28;96626;-77
2023/09/22 07:54:58;;;;;;;1.77;1.08;;;;;;;17.75;76.28;100460.75;10301299;28;96753;-77
2023/09/22 08:00:09;;;;;;;2.75;1.33;;;;;;;18.05;75.74;100458.72;10283404;28;97255;-77
2023/09/22 08:05:15;;;;;;;4.47;1.30;;;;;;;18.43;74.98;100484.56;10259278;28;97811;-76
2023/09/22 08:10:22;;;;;;;3.85;1.33;;;;;;;18.74;74.24;100493.06;10272940;28;96928;-76
2023/09/22 08:15:28;;;;;;;1.17;0.80;;;;;;;18.61;74.74;100499.38;10298161;28;96986;-77
2023/09/22 08:20:32;;;;;;;1.88;1.00;;;;;;;18.66;74.51;100507.91;10300357;28;96553;-77
2023/09/22 08:25:43;;;;;;;2.10;0.87;;;;;;;19.47;72.98;100515.44;10268478;28;96713;-75
2023/09/22 08:30:49;;;;;;;1.25;0.93;;;;;;;19.69;72.58;100506.72;10264819;28;96868;-76
2023/09/22 08:35:52;;;;;;;2.00;1.45;;;;;;;19.81;72.66;100505.81;10299688;28;96895;-76
2023/09/22 08:41:06;;;;;;;1.70;1.33;;;;;;;20.93;70.41;100519.53;10277849;28;96785;-76
2023/09/22 08:46:13;;;;;;;1.73;0.88;;;;;;;22.47;67.20;100519.28;10258006;28;97005;-76
2023/09/22 08:51:17;;;;;;;1.50;1.00;;;;;;;23.70;65.25;100520.16;10258902;28;96707;-76
2023/09/22 08:56:22;;;;;;;;;;;;;;;24.45;61.79;100533.84;10259695;28;97803;-76
2023/09/22 09:01:27;;;;;;;3.13;0.90;;;;;;;24.58;64.32;100546.03;10279541;28;96826;-76
2023/09/22 09:06:46;;;;;;;2.55;0.98;;;;;;;23.70;63.08;100549.72;10299150;28;96974;-76
2023/09/22 09:11:59;;;;;;;2.25;1.00;;;;;;;23.16;64.92;100555.41;10298704;28;96724;-76
2023/09/22 09:17:18;;;;;;;0.90;0.73;;;;;;;23.41;63.76;100554.09;10277557;28;97320;-76
2023/09/22 09:22:21;;;;;;;1.02;0.73;;;;;;;24.23;62.83;100566.38;10314732;28;96820;-76
2023/09/22 09:27:26;;;;;;;2.80;1.42;;;;;;;25.59;58.31;100565.94;10308947;28;96916;-76
2023/09/22 09:32:31;;;;;;;2.17;0.63;;;;;;;27.58;54.98;100569.06;10295918;28;97204;-77
2023/09/22 09:37:35;;;;;;;2.08;0.70;;;;;;;27.19;55.70;100574.06;10297677;28;96785;-76
2023/09/22 09:42:43;;;;;;;1.15;0.40;;;;;;;26.24;56.34;100566.75;10300211;28;96889;-76
2023/09/22 09:47:52;;;;;;;1.35;0.65;;;;;;;24.78;58.61;100588.09;10295954;28;96675;-76
2023/09/22 09:52:59;;;;;;;6.20;1.50;;;;;;;23.37;60.51;100580.34;10257225;28;96705;-75
2023/09/22 09:58:04;;;;;;;2.13;0.70;;;;;;;23.03;60.32;100573.53;10306731;28;96924;-76
2023/09/22 10:03:12;;;;;;;1.67;0.82;;;;;;;22.48;60.43;100588.06;10299853;28;96987;-76
2023/09/22 10:08:18;;;;;;;2.00;0.50;;;;;;;22.23;60.11;100585.69;10308892;28;96826;-76
2023/09/22 10:13:22;;;;;;;5.25;0.85;;;;;;;21.95;60.51;100602.28;10335112;28;96763;-75
2023/09/22 10:18:47;;;;;;;3.07;0.90;;;;;;;21.70;60.65;100594.53;10329704;28;98586;-75
2023/09/22 10:24:17;;;;;;;2.40;0.82;;;;;;;21.65;60.35;100601.22;10307437;28;96765;-76
2023/09/22 10:29:41;;;;;;;2.67;0.57;;;;;;;21.45;61.49;100609.00;10308026;28;96835;-75
2023/09/22 10:34:47;;;;;;;3.55;0.93;;;;;;;20.98;62.87;100608.31;10307021;28;98744;-75
2023/09/22 10:39:55;;;;;;;2.13;1.00;;;;;;;20.63;64.16;100608.31;10315846;28;96873;-75
2023/09/22 10:45:00;;;;;;;2.03;1.00;;;;;;;20.38;64.35;100612.94;10296276;28;96711;-75
2023/09/22 10:50:21;;;;;;;4.00;1.17;;;;;;;20.26;65.41;100615.50;10319120;28;96844;-75
2023/09/22 10:55:30;;;;;;;2.88;0.98;;;;;;;19.96;66.41;100609.72;10297986;28;97619;-75
2023/09/22 11:00:37;;;;;;;2.42;1.00;;;;;;;20.15;65.69;100612.75;10319211;28;97247;-75
2023/09/22 11:05:43;;;;;;;2.15;1.38;;;;;;;20.57;65.38;100614.09;10301370;28;96824;-75
2023/09/22 11:10:49;;;;;;;3.95;1.38;;;;;;;21.56;62.83;100601.94;10241503;22;97456;-75
2023/09/22 11:15:56;;;;;;;5.35;1.00;;;;;;;21.44;62.27;100596.63;10219862;28;96951;-74
2023/09/22 11:21:04;;;;;;;2.60;1.00;;;;;;;22.56;59.66;100600.81;10221586;28;96938;-75
2023/09/22 11:26:10;;;;;;;2.50;0.77;;;;;;;23.34;58.34;100599.44;10221162;28;96745;-75
2023/09/22 11:31:14;;;;;;;4.18;1.42;;;;;;;22.89;58.44;100600.69;10199330;28;96931;-75
2023/09/22 11:36:19;;;;;;;3.80;1.25;;;;;;;22.80;58.10;100601.47;10213111;28;96866;-75
2023/09/22 11:41:23;;;;;;;3.25;0.80;;;;;;;22.60;57.57;100599.59;10216282;28;96763;-75
2023/09/22 11:46:27;;;;;;;;;;;;;;;22.61;55.69;100579.81;10217851;28;96760;-75
2023/09/22 11:51:47;;;;;;;2.77;0.90;;;;;;;23.08;55.61;100589.22;10220798;28;98662;-75
2023/09/22 11:56:55;;;;;;;3.08;1.27;;;;;;;23.12;56.05;100582.63;10219081;28;96857;-75
2023/09/22 12:02:00;;;;;;;3.55;1.42;;;;;;;24.10;54.40;100585.47;10218047;28;96874;-75
2023/09/22 12:07:09;;;;;;;2.60;1.00;;;;;;;24.02;53.67;100569.19;10209421;28;98335;-75
2023/09/22 12:12:12;;;;;;;1.95;0.73;;;;;;;23.76;53.98;100580.56;10219211;28;96926;-75
2023/09/22 12:17:15;;;;;;;5.13;1.07;;;;;;;24.99;51.49;100584.38;10222496;28;97112;-75
2023/09/22 12:22:20;;;;;;;;;;;;;;;25.32;50.16;100578.53;10234823;28;97355;-76
2023/09/22 12:27:24;;;;;;;4.10;0.88;;;;;;;25.57;50.54;100576.03;10235131;28;96825;-76
2023/09/22 12:32:27;;;;;;;1.75;0.88;;;;;;;25.99;49.16;100568.34;10218144;28;96837;-76
2023/09/22 12:37:33;;;;;;;2.08;0.63;;;;;;;28.34;45.85;100568.03;10211216;28;96898;-76
2023/09/22 12:42:38;;;;;;;3.03;0.82;;;;;;;29.55;43.83;100571.59;10179562;28;96839;-76
2023/09/22 12:47:41;;;;;;;1.95;0.80;;;;;;;29.70;42.07;100567.13;10223751;28;96861;-76
2023/09/22 12:52:46;;;;;;;2.00;0.88;;;;;;;29.62;41.16;100553.59;10242107;28;96843;-77
2023/09/22 12:57:50;;;;;;;3.33;1.25;;;;;;;30.25;39.06;100553.44;10240216;28;96806;-76
2023/09/22 13:02:53;;;;;;;1.52;0.75;;;;;;;30.17;38.66;100548.09;10217836;28;96832;-76
2023/09/22 13:07:58;;;;;;;1.63;0.80;;;;;;;28.11;41.71;100550.69;10217156;28;97145;-76
2023/09/22 13:13:01;;;;;;;1.63;0.75;;;;;;;26.30;44.51;100544.56;10198514;28;96863;-75
2023/09/22 13:18:05;;;;;;;3.92;0.82;;;;;;;25.05;44.97;100556.94;10177259;28;96706;-75
2023/09/22 13:23:10;;;;;;;4.68;1.73;;;;;;;24.37;46.97;100555.25;10210860;28;98180;-74
2023/09/22 13:28:16;;;;;;;2.28;1.13;;;;;;;23.79;47.95;100551.56;10218294;28;96915;-75
2023/09/22 13:33:20;;;;;;;3.13;1.20;;;;;;;23.21;49.33;100558.53;10216458;28;97893;-75
2023/09/22 13:38:25;;;;;;;3.35;1.08;;;;;;;23.18;49.59;100569.50;10216178;28;96967;-75
2023/09/22 13:43:28;;;;;;;2.13;0.68;;;;;;;22.93;50.09;100559.19;10217155;28;96956;-74
2023/09/22 13:48:32;;;;;;;2.07;0.80;;;;;;;22.54;51.07;100554.53;10214982;28;96868;-74
2023/09/22 13:53:36;;;;;;;3.30;1.20;;;;;;;23.03;50.10;100564.63;10216566;28;96712;-74
2023/09/22 13:58:41;;;;;;;3.65;1.20;;;;;;;24.40;47.75;100561.19;10216640;28;96768;-75
2023/09/22 14:03:46;;;;;;;3.58;1.02;;;;;;;25.52;45.76;100547.84;10197961;28;97019;-75
2023/09/22 14:08:54;;;;;;;3.78;1.10;;;;;;;24.60;47.92;100554.81;10175811;28;96959;-75
2023/09/22 14:13:58;;;;;;;3.92;1.00;;;;;;;25.28;46.32;100539.41;10176332;28;96711;-75
2023/09/22 14:19:01;;;;;;;3.73;0.80;;;;;;;25.21;46.60;100536.47;10176987;28;96976;-75
2023/09/22 14:24:07;;;;;;;2.35;0.98;;;;;;;24.57;47.02;100544.34;10204113;28;96984;-75
2023/09/22 14:29:11;;;;;;;2.60;1.00;;;;;;;24.15;47.85;100540.19;10215142;28;96835;-74
2023/09/22 14:34:14;;;;;;;3.67;0.90;;;;;;;24.49;46.62;100536.13;10216137;28;97059;-74
2023/09/22 14:39:19;;;;;;;2.47;0.93;;;;;;;25.07;45.89;100534.22;10209806;28;97121;-74
2023/09/22 14:44:23;;;;;;;3.55;1.02;;;;;;;24.68;46.91;100548.72;10214780;28;96942;-75
2023/09/22 14:49:26;;;;;;;5.73;1.30;;;;;;;24.41;47.63;100554.81;10220154;28;96802;-74
2023/09/22 14:54:31;;;;;;;1.70;1.00;;;;;;;24.59;47.12;100542.38;10206309;28;98888;-74
2023/09/22 14:59:35;;;;;;;1.55;0.80;;;;;;;24.20;47.93;100537.94;10219784;28;96824;-73
2023/09/22 15:04:39;;;;;;;3.88;1.13;;;;;;;24.15;48.55;100542.88;10216195;28;96880;-74
2023/09/22 15:09:45;;;;;;;;;;;;;;;24.04;48.46;100537.63;10218188;28;97274;-74
2023/09/22 15:14:52;;;;;;;3.60;0.90;;;;;;;23.89;48.88;100524.72;10210480;28;96710;-74
2023/09/22 15:19:56;;;;;;;2.50;1.20;;;;;;;24.17;48.40;100532.00;10221548;28;97070;-74
2023/09/22 15:25:01;;;;;;;4.95;0.85;;;;;;;24.34;48.50;100529.47;10220680;28;98986;-74
2023/09/22 15:30:07;;;;;;;4.85;1.55;;;;;;;24.29;48.49;100531.72;10218775;28;96860;-74
2023/09/22 15:35:11;;;;;;;2.83;1.00;;;;;;;24.00;49.05;100533.50;10217330;28;96946;-74
2023/09/22 15:40:16;;;;;;;1.83;0.70;;;;;;;24.18;48.73;100533.69;10220300;28;96809;-74
2023/09/22 15:45:21;;;;;;;3.50;1.10;;;;;;;23.79;49.37;100534.63;10225398;28;96941;-74
2023/09/22 15:50:27;;;;;;;3.00;1.00;;;;;;;23.48;49.93;100533.75;10218184;28;97031;-74
2023/09/22 15:55:32;;;;;;;4.05;1.00;;;;;;;23.25;50.48;100534.94;10201325;28;100617;-74
2023/09/22 16:00:39;;;;;;;3.20;1.10;;;;;;;23.42;50.10;100537.81;10207083;28;96821;-74
2023/09/22 16:05:43;;;;;;;3.75;0.90;;;;;;;23.27;50.51;100544.56;10211928;28;96789;-74
2023/09/22 16:10:48;;;;;;;;;;;;;;;22.85;51.49;100536.69;10212093;28;99571;-74
2023/09/22 16:15:52;;;;;;;2.22;0.73;;;;;;;22.74;51.46;100534.03;10213041;28;96881;-75
2023/09/22 16:20:56;;;;;;;4.18;0.73;;;;;;;22.81;51.16;100535.25;10194169;28;99427;-79
2023/09/22 16:26:03;;;;;;;2.40;0.80;;;;;;;23.03;50.88;100535.09;10218774;28;96746;-79
2023/09/22 16:31:07;;;;;;;3.63;1.17;;;;;;;22.97;51.17;100536.50;10214102;28;96730;-79
2023/09/22 16:36:10;;;;;;;2.25;0.80;;;;;;;22.93;51.38;100539.56;10190986;28;97675;-79
2023/09/22 16:41:15;;;;;;;1.95;0.90;;;;;;;22.73;51.81;100529.66;10218687;28;97227;-79
2023/09/22 16:46:19;;;;;;;1.88;1.02;;;;;;;22.76;52.00;100537.44;10218083;28;96774;-79
2023/09/22 16:51:23;;;;;;;2.80;0.70;;;;;;;22.52;52.15;100541.22;10218118;28;96763;-79
2023/09/22 16:56:28;;;;;;;2.38;0.75;;;;;;;22.53;52.57;100542.94;10179695;28;97259;-79
2023/09/22 17:01:31;;;;;;;2.72;0.63;;;;;;;22.58;52.32;100547.91;10178185;28;96773;-79
2023/09/22 17:06:35;;;;;;;1.63;0.65;;;;;;;22.34;52.87;100558.84;10196677;28;96759;-79
2023/09/22 17:11:40;;;;;;;4.63;0.80;;;;;;;22.33;52.89;100553.63;10135560;28;96806;-79
2023/09/22 17:16:43;;;;;;;3.10;0.60;;;;;;;22.23;53.15;100548.16;10137553;28;96717;-78
2023/09/22 17:21:47;;;;;;;2.50;0.50;;;;;;;22.02;53.61;100568.69;10137791;28;96679;-78
2023/09/22 17:26:51;;;;;;;2.20;0.67;;;;;;;22.03;53.15;100567.72;10137019;28;96629;-78
2023/09/22 17:31:56;;;;;;;2.92;0.80;;;;;;;22.05;53.28;100573.81;10137360;28;96829;-78
2023/09/22 17:37:01;;;;;;;3.33;0.82;;;;;;;21.97;53.89;100570.88;10136888;28;97461;-78
2023/09/22 17:42:06;;;;;;;3.30;0.80;;;;;;;21.86;54.33;100573.59;10136982;28;96665;-78
2023/09/22 17:47:10;;;;;;;2.58;0.70;;;;;;;21.61;54.52;100568.47;10101273;28;96622;-78
2023/09/22 17:52:14;;;;;;;2.15;0.73;;;;;;;21.66;55.05;100592.25;10097282;28;96932;-78
2023/09/22 17:57:19;;;;;;;2.70;0.80;;;;;;;21.57;54.96;100595.63;10114945;28;96658;-78
2023/09/22 18:02:22;;;;;;;3.08;0.82;;;;;;;21.36;55.17;100590.16;10134895;28;97173;-78
2023/09/22 18:07:27;;;;;;;5.38;1.00;;;;;;;21.29;55.39;100578.22;10148824;28;96913;-78
2023/09/22 18:12:32;;;;;;;2.47;0.88;;;;;;;21.17;55.86;100577.34;10215431;28;97165;-78
2023/09/22 18:17:35;;;;;;;5.05;0.90;;;;;;;21.02;56.15;100580.31;10206842;28;96770;-78
2023/09/22 18:22:39;;;;;;;2.80;0.82;;;;;;;20.85;56.58;100583.44;10175404;28;96995;-78
2023/09/22 18:27:44;;;;;;;2.93;0.87;;;;;;;20.78;56.87;100588.41;10175473;28;97678;-78
2023/09/22 18:32:47;;;;;;;3.28;1.08;;;;;;;20.68;57.29;100587.41;10205303;28;97177;-78
2023/09/22 18:37:51;;;;;;;3.17;1.00;;;;;;;20.53;58.09;100593.06;10181096;28;96956;-78
2023/09/22 18:43:13;;;;;;;2.78;1.10;;;;;;;20.36;58.92;100583.63;10169825;28;97080;-78
2023/09/22 18:48:18;;;;;;;4.30;1.10;;;;;;;20.29;58.74;100583.19;10192817;28;97013;-78
2023/09/22 18:53:21;;;;;;;3.10;1.02;;;;;;;20.13;59.88;100606.66;10190910;28;96803;-78
2023/09/22 18:58:26;;;;;;;4.80;1.20;;;;;;;19.99;60.43;100614.00;10174747;28;96716;-78
2023/09/22 19:03:31;;;;;;;3.97;1.02;;;;;;;19.90;60.50;100609.31;10178063;28;97513;-78
2023/09/22 19:08:35;;;;;;;2.90;1.30;;;;;;;19.73;61.23;100613.22;10205532;28;96786;-79
2023/09/22 19:13:40;;;;;;;3.28;1.30;;;;;;;19.64;61.60;100615.66;10174799;28;96598;-78
2023/09/22 19:18:44;;;;;;;3.58;1.13;;;;;;;19.53;61.96;100627.09;10174626;28;96760;-78
2023/09/22 19:23:48;;;;;;;2.97;1.45;;;;;;;19.45;62.35;100623.28;10204364;28;96572;-78
2023/09/22 19:28:52;;;;;;;4.53;1.30;;;;;;;19.35;62.95;100624.84;10185093;28;96810;-78
2023/09/22 19:33:56;;;;;;;6.05;1.20;;;;;;;19.29;63.26;100626.13;10197886;28;96823;-78
2023/09/22 19:39:00;;;;;;;3.33;1.40;;;;;;;19.18;63.86;100628.69;10206708;28;96804;-78
2023/09/22 19:44:05;;;;;;;3.70;1.30;;;;;;;19.08;64.29;100627.59;10188748;28;96846;-78
2023/09/22 19:49:08;;;;;;;3.28;1.23;;;;;;;19.13;63.79;100641.47;10215508;28;98087;-78
2023/09/22 19:54:13;;;;;;;2.80;1.30;;;;;;;19.13;63.82;100652.13;10211195;28;97111;-75
2023/09/22 19:59:18;;;;;;;4.28;1.52;;;;;;;19.10;63.77;100661.22;10210419;28;98502;-75
2023/09/22 20:04:22;;;;;;;5.53;1.50;;;;;;;19.13;63.90;100674.34;10213607;28;98974;-75
2023/09/22 20:09:26;;;;;;;4.57;1.27;;;;;;;19.12;64.16;100683.31;10212562;28;96944;-75
2023/09/22 20:14:31;;;;;;;5.07;1.83;;;;;;;18.86;64.91;100691.34;10213321;28;96966;-77
2023/09/22 20:19:35;;;;;;;6.53;1.50;;;;;;;18.75;65.31;100689.41;10212153;28;96895;-74
2023/09/22 20:24:38;;;;;;;;;;;;;;;18.69;66.42;100694.28;10215710;28;96796;-74
2023/09/22 20:29:48;;;;;;;5.65;1.13;;;;;;;18.46;65.87;100702.88;10216408;28;96864;-76
2023/09/22 20:34:52;;;;;;;3.22;1.10;;;;;;;18.62;65.65;100719.63;10212855;28;97580;-76
2023/09/22 20:39:56;;;;;;;3.07;1.20;;;;;;;18.51;66.06;100731.00;10211226;28;99496;-78
2023/09/22 20:45:03;;;;;;;5.70;1.30;;;;;;;18.50;66.26;100729.28;10214809;28;96828;-76
2023/09/22 20:50:08;;;;;;;4.03;1.23;;;;;;;18.46;66.36;100730.44;10214693;28;96843;-78
2023/09/22 20:55:11;;;;;;;;;;;;;;;18.29;68.12;100733.28;10212036;28;96823;-80
2023/09/22 21:00:20;;;;;;;3.35;1.23;;;;;;;18.13;67.18;100730.75;10214750;28;97074;-78
2023/09/22 21:05:24;;;;;;;2.45;1.20;;;;;;;18.16;67.41;100745.66;10214667;28;96897;-82
2023/09/22 21:10:30;;;;;;;8.20;1.58;;;;;;;18.24;67.15;100745.19;10208425;28;97925;-81
2023/09/22 21:15:35;;;;;;;4.40;1.15;;;;;;;18.29;67.10;100735.97;10216337;28;97425;-81
2023/09/22 21:20:40;;;;;;;2.22;1.10;;;;;;;18.02;68.09;100751.03;10216355;28;96817;-80
2023/09/22 21:25:47;;;;;;;;;;;;;;;17.76;69.68;100747.28;10212624;28;96902;-80
2023/09/22 21:30:53;;;;;;;3.45;1.17;;;;;;;17.90;68.21;100747.28;10215868;28;96709;-80
2023/09/22 21:35:56;;;;;;;2.58;1.20;;;;;;;18.04;67.57;100749.97;10213359;28;98789;-80
2023/09/22 21:41:05;;;;;;;1.95;0.98;;;;;;;18.15;67.60;100742.16;10213772;28;96984;-82
2023/09/22 21:46:10;;;;;;;2.35;1.10;;;;;;;18.17;67.73;100750.06;10213877;28;96870;-81
2023/09/22 21:51:14;;;;;;;3.47;1.15;;;;;;;18.10;67.90;100751.38;10214962;28;96837;-81
2023/09/22 21:56:18;;;;;;;4.67;1.30;;;;;;;17.96;68.09;100759.38;10213744;28;97630;-81
2023/09/22 22:01:23;;;;;;;4.40;1.40;;;;;;;17.80;68.82;100756.81;10207780;28;96808;-82
2023/09/22 22:06:27;;;;;;;3.08;1.20;;;;;;;17.55;69.55;100758.38;10213472;28;99097;-81
2023/09/22 22:11:30;;;;;;;2.40;1.10;;;;;;;17.22;70.48;100771.84;10214228;28;96941;-82
2023/09/22 22:16:35;;;;;;;3.17;1.30;;;;;;;17.29;70.52;100775.00;10208191;28;97068;-82
2023/09/22 22:21:40;;;;;;;2.10;1.13;;;;;;;17.22;70.67;100771.84;10213520;28;96993;-82
2023/09/22 22:26:44;;;;;;;3.38;1.10;;;;;;;17.20;70.55;100762.25;10211818;28;98027;-82
2023/09/22 22:31:48;;;;;;;2.63;1.17;;;;;;;17.00;71.26;100752.75;10211276;28;96861;-81
2023/09/22 22:36:52;;;;;;;4.63;1.60;;;;;;;17.08;71.21;100755.84;10209916;28;96865;-82
2023/09/22 22:41:55;;;;;;;4.90;1.25;;;;;;;17.27;70.37;100764.47;10212460;28;97557;-82
2023/09/22 22:47:00;;;;;;;3.85;1.30;;;;;;;17.34;70.07;100768.47;10223253;28;96904;-83
2023/09/22 22:52:07;;;;;;;5.20;1.10;;;;;;;17.28;69.92;100779.47;10224757;28;97330;-85
2023/09/22 22:57:12;;;;;;;4.13;1.15;;;;;;;17.33;70.35;100776.56;10201429;28;97734;-76
2023/09/22 23:02:21;;;;;;;3.10;1.00;;;;;;;17.16;70.74;100781.97;10212932;28;96998;-76
2023/09/22 23:07:25;;;;;;;4.68;1.20;;;;;;;17.34;70.33;100771.13;10200886;28;97347;-76
2023/09/22 23:12:29;;;;;;;2.17;1.23;;;;;;;17.03;70.81;100760.56;10216673;28;99571;-76
2023/09/22 23:17:36;;;;;;;2.85;0.98;;;;;;;17.24;70.32;100767.31;10218526;28;97052;-76
2023/09/22 23:22:39;;;;;;;3.60;1.23;;;;;;;17.10;70.78;100772.56;10216319;28;97036;-76
2023/09/22 23:27:42;;;;;;;5.68;1.52;;;;;;;16.87;71.54;100770.38;10215771;28;96734;-76
2023/09/22 23:32:47;;;;;;;2.50;1.10;;;;;;;16.72;71.84;100781.88;10217751;28;96851;-76